sensor_id;sensor_type;location;lat;lon;timestamp;temperature;humidity
4757;DHT22;2392;52.578;13.426;2023-07-16T00:02:05;23.70;99.90
4757;DHT22;2392;52.578;13.426;2023-07-16T00:04:32;23.60;99.90
4757;DHT22;2392;52.578;13.426;2023-07-16T00:06:59;23.60;99.90
4757;DHT22;2392;52.578;13.426;2023-07-16T00:09:27;23.60;99.90
4757;DHT22;2392;52.578;13.426;2023-07-16T00:11:54;23.50;99.90
4757;DHT22;2392;52.578;13.426;2023-07-16T00:14:21;23.50;99.90
4757;DHT22;2392;52.578;13.426;2023-07-16T00:16:49;23.50;99.90
4757;DHT22;2392;52.578;13.426;2023-07-16T00:19:16;23.50;99.90
4757;DHT22;2392;52.578;13.426;2023-07-16T00:21:43;23.50;99.90
4757;DHT22;2392;52.578;13.426;2023-07-16T00:24:10;23.50;99.90
4757;DHT22;2392;52.578;13.426;2023-07-16T00:26:37;23.40;99.90
4757;DHT22;2392;52.578;13.426;2023-07-16T00:29:04;23.40;99.90
4757;DHT22;2392;52.578;13.426;2023-07-16T00:31:31;23.40;99.90
4757;DHT22;2392;52.578;13.426;2023-07-16T00:33:59;23.40;99.90
4757;DHT22;2392;52.578;13.426;2023-07-16T00:36:26;23.40;99.90
4757;DHT22;2392;52.578;13.426;2023-07-16T00:38:53;23.40;99.90
4757;DHT22;2392;52.578;13.426;2023-07-16T00:41:20;23.40;99.90
4757;DHT22;2392;52.578;13.426;2023-07-16T00:43:47;23.40;99.90
4757;DHT22;2392;52.578;13.426;2023-07-16T00:46:15;23.40;99.90
4757;DHT22;2392;52.578;13.426;2023-07-16T00:48:45;23.40;99.90
4757;DHT22;2392;52.578;13.426;2023-07-16T00:51:13;23.40;99.90
4757;DHT22;2392;52.578;13.426;2023-07-16T00:53:41;23.40;99.90
4757;DHT22;2392;52.578;13.426;2023-07-16T00:56:08;23.40;99.90
4757;DHT22;2392;52.578;13.426;2023-07-16T00:58:35;23.40;99.90
4757;DHT22;2392;52.578;13.426;2023-07-16T01:01:02;23.40;99.90
4757;DHT22;2392;52.578;13.426;2023-07-16T01:03:29;23.40;99.90
4757;DHT22;2392;52.578;13.426;2023-07-16T01:06:00;23.30;99.90
4757;DHT22;2392;52.578;13.426;2023-07-16T01:08:38;23.40;99.90
4757;DHT22;2392;52.578;13.426;2023-07-16T01:11:06;23.40;99.90
4757;DHT22;2392;52.578;13.426;2023-07-16T01:13:34;23.40;99.90
4757;DHT22;2392;52.578;13.426;2023-07-16T01:16:04;23.40;99.90
4757;DHT22;2392;52.578;13.426;2023-07-16T01:18:31;23.40;99.90
4757;DHT22;2392;52.578;13.426;2023-07-16T01:20:58;23.40;99.90
4757;DHT22;2392;52.578;13.426;2023-07-16T01:26:39;23.50;99.90
4757;DHT22;2392;52.578;13.426;2023-07-16T01:29:27;23.50;99.90
4757;DHT22;2392;52.578;13.426;2023-07-16T01:31:56;23.50;99.90
4757;DHT22;2392;52.578;13.426;2023-07-16T01:34:25;23.50;99.90
4757;DHT22;2392;52.578;13.426;2023-07-16T01:36:53;23.40;99.90
4757;DHT22;2392;52.578;13.426;2023-07-16T01:39:21;23.40;99.90
4757;DHT22;2392;52.578;13.426;2023-07-16T01:41:48;23.40;99.90
4757;DHT22;2392;52.578;13.426;2023-07-16T01:44:17;23.30;99.90
4757;DHT22;2392;52.578;13.426;2023-07-16T01:46:53;23.30;99.90
4757;DHT22;2392;52.578;13.426;2023-07-16T01:49:21;23.20;99.90
4757;DHT22;2392;52.578;13.426;2023-07-16T01:51:48;23.20;99.90
4757;DHT22;2392;52.578;13.426;2023-07-16T01:54:15;23.10;99.90
4757;DHT22;2392;52.578;13.426;2023-07-16T01:56:42;23.10;99.90
4757;DHT22;2392;52.578;13.426;2023-07-16T01:59:09;23.10;99.90
4757;DHT22;2392;52.578;13.426;2023-07-16T02:01:37;23.00;99.90
4757;DHT22;2392;52.578;13.426;2023-07-16T02:04:04;23.00;99.90
4757;DHT22;2392;52.578;13.426;2023-07-16T02:06:33;23.00;99.90
4757;DHT22;2392;52.578;13.426;2023-07-16T02:09:00;23.00;99.90
4757;DHT22;2392;52.578;13.426;2023-07-16T02:11:28;23.00;99.90
4757;DHT22;2392;52.578;13.426;2023-07-16T02:13:56;23.00;99.90
4757;DHT22;2392;52.578;13.426;2023-07-16T02:16:23;23.00;99.90
4757;DHT22;2392;52.578;13.426;2023-07-16T02:18:51;23.00;99.90
4757;DHT22;2392;52.578;13.426;2023-07-16T02:21:18;23.00;99.90
4757;DHT22;2392;52.578;13.426;2023-07-16T02:23:47;23.00;99.90
4757;DHT22;2392;52.578;13.426;2023-07-16T02:26:14;23.10;99.90
4757;DHT22;2392;52.578;13.426;2023-07-16T02:28:42;23.10;99.90
4757;DHT22;2392;52.578;13.426;2023-07-16T02:31:09;23.10;99.90
4757;DHT22;2392;52.578;13.426;2023-07-16T02:33:36;23.00;99.90
4757;DHT22;2392;52.578;13.426;2023-07-16T02:36:04;22.90;99.90
4757;DHT22;2392;52.578;13.426;2023-07-16T02:38:31;22.70;99.90
4757;DHT22;2392;52.578;13.426;2023-07-16T02:40:58;22.40;99.90
4757;DHT22;2392;52.578;13.426;2023-07-16T02:43:25;22.20;99.90
4757;DHT22;2392;52.578;13.426;2023-07-16T02:45:52;22.10;99.90
4757;DHT22;2392;52.578;13.426;2023-07-16T02:48:21;21.90;99.90
4757;DHT22;2392;52.578;13.426;2023-07-16T02:50:48;21.80;99.90
4757;DHT22;2392;52.578;13.426;2023-07-16T02:53:19;21.70;99.90
4757;DHT22;2392;52.578;13.426;2023-07-16T02:55:46;21.70;99.90
4757;DHT22;2392;52.578;13.426;2023-07-16T02:58:13;21.60;99.90
4757;DHT22;2392;52.578;13.426;2023-07-16T03:00:40;21.60;99.90
4757;DHT22;2392;52.578;13.426;2023-07-16T03:03:07;21.50;99.90
4757;DHT22;2392;52.578;13.426;2023-07-16T03:05:34;21.50;99.90
4757;DHT22;2392;52.578;13.426;2023-07-16T03:08:01;21.40;99.90
4757;DHT22;2392;52.578;13.426;2023-07-16T03:10:31;21.40;99.90
4757;DHT22;2392;52.578;13.426;2023-07-16T03:12:58;21.40;99.90
4757;DHT22;2392;52.578;13.426;2023-07-16T03:15:25;21.40;99.90
4757;DHT22;2392;52.578;13.426;2023-07-16T03:17:52;21.40;99.90
4757;DHT22;2392;52.578;13.426;2023-07-16T03:20:19;21.40;99.90
4757;DHT22;2392;52.578;13.426;2023-07-16T03:22:46;21.40;99.90
4757;DHT22;2392;52.578;13.426;2023-07-16T03:25:13;21.40;99.90
4757;DHT22;2392;52.578;13.426;2023-07-16T03:27:42;21.40;99.90
4757;DHT22;2392;52.578;13.426;2023-07-16T03:30:09;21.50;99.90
4757;DHT22;2392;52.578;13.426;2023-07-16T03:32:37;21.50;99.90
4757;DHT22;2392;52.578;13.426;2023-07-16T03:35:05;21.50;99.90
4757;DHT22;2392;52.578;13.426;2023-07-16T03:37:32;21.50;99.90
4757;DHT22;2392;52.578;13.426;2023-07-16T03:40:12;21.50;99.90
4757;DHT22;2392;52.578;13.426;2023-07-16T03:42:43;21.60;99.90
4757;DHT22;2392;52.578;13.426;2023-07-16T03:45:10;21.60;99.90
4757;DHT22;2392;52.578;13.426;2023-07-16T03:47:40;21.50;99.90
4757;DHT22;2392;52.578;13.426;2023-07-16T03:50:09;21.50;99.90
4757;DHT22;2392;52.578;13.426;2023-07-16T03:52:36;21.50;99.90
4757;DHT22;2392;52.578;13.426;2023-07-16T03:55:04;21.40;99.90
4757;DHT22;2392;52.578;13.426;2023-07-16T03:57:32;21.40;99.90
4757;DHT22;2392;52.578;13.426;2023-07-16T04:00:00;21.40;99.90
4757;DHT22;2392;52.578;13.426;2023-07-16T04:02:29;21.30;99.90
4757;DHT22;2392;52.578;13.426;2023-07-16T04:04:56;21.30;99.90
4757;DHT22;2392;52.578;13.426;2023-07-16T04:07:24;21.30;99.90
4757;DHT22;2392;52.578;13.426;2023-07-16T04:09:51;21.30;99.90
4757;DHT22;2392;52.578;13.426;2023-07-16T04:12:18;21.20;99.90
4757;DHT22;2392;52.578;13.426;2023-07-16T04:14:46;21.20;99.90
4757;DHT22;2392;52.578;13.426;2023-07-16T04:17:14;21.20;99.90
4757;DHT22;2392;52.578;13.426;2023-07-16T04:19:41;21.10;99.90
4757;DHT22;2392;52.578;13.426;2023-07-16T04:22:08;21.10;99.90
4757;DHT22;2392;52.578;13.426;2023-07-16T04:24:35;21.10;99.90
4757;DHT22;2392;52.578;13.426;2023-07-16T04:27:02;21.10;99.90
4757;DHT22;2392;52.578;13.426;2023-07-16T04:29:29;21.10;99.90
4757;DHT22;2392;52.578;13.426;2023-07-16T04:31:56;21.10;99.90
4757;DHT22;2392;52.578;13.426;2023-07-16T04:34:25;21.10;99.90
4757;DHT22;2392;52.578;13.426;2023-07-16T04:36:53;21.10;99.90
4757;DHT22;2392;52.578;13.426;2023-07-16T04:39:20;21.10;99.90
4757;DHT22;2392;52.578;13.426;2023-07-16T04:41:47;21.10;99.90
4757;DHT22;2392;52.578;13.426;2023-07-16T04:44:14;21.10;99.90
4757;DHT22;2392;52.578;13.426;2023-07-16T04:46:41;21.10;99.90
4757;DHT22;2392;52.578;13.426;2023-07-16T04:49:07;21.10;99.90
4757;DHT22;2392;52.578;13.426;2023-07-16T04:51:36;21.10;99.90
4757;DHT22;2392;52.578;13.426;2023-07-16T04:54:03;21.10;99.90
4757;DHT22;2392;52.578;13.426;2023-07-16T04:56:32;21.10;99.90
4757;DHT22;2392;52.578;13.426;2023-07-16T04:58:59;21.10;99.90
4757;DHT22;2392;52.578;13.426;2023-07-16T05:01:26;21.10;99.90
4757;DHT22;2392;52.578;13.426;2023-07-16T05:03:53;21.10;99.90
4757;DHT22;2392;52.578;13.426;2023-07-16T05:06:20;21.10;99.90
4757;DHT22;2392;52.578;13.426;2023-07-16T05:08:48;21.10;99.90
4757;DHT22;2392;52.578;13.426;2023-07-16T05:11:15;21.10;99.90
4757;DHT22;2392;52.578;13.426;2023-07-16T05:13:42;21.10;99.90
4757;DHT22;2392;52.578;13.426;2023-07-16T05:16:09;21.10;99.90
4757;DHT22;2392;52.578;13.426;2023-07-16T05:18:39;21.20;99.90
4757;DHT22;2392;52.578;13.426;2023-07-16T05:21:06;21.20;99.90
4757;DHT22;2392;52.578;13.426;2023-07-16T05:23:33;21.30;99.90
4757;DHT22;2392;52.578;13.426;2023-07-16T05:26:01;21.30;99.90
4757;DHT22;2392;52.578;13.426;2023-07-16T05:28:28;21.30;99.90
4757;DHT22;2392;52.578;13.426;2023-07-16T05:30:59;21.30;99.90
4757;DHT22;2392;52.578;13.426;2023-07-16T05:33:26;21.40;99.90
4757;DHT22;2392;52.578;13.426;2023-07-16T05:35:53;21.40;99.90
4757;DHT22;2392;52.578;13.426;2023-07-16T05:38:20;21.50;99.90
4757;DHT22;2392;52.578;13.426;2023-07-16T05:40:47;21.60;99.90
4757;DHT22;2392;52.578;13.426;2023-07-16T05:43:15;21.70;99.90
4757;DHT22;2392;52.578;13.426;2023-07-16T05:45:42;21.70;99.90
4757;DHT22;2392;52.578;13.426;2023-07-16T05:48:09;21.70;99.90
4757;DHT22;2392;52.578;13.426;2023-07-16T05:50:36;21.70;99.90
4757;DHT22;2392;52.578;13.426;2023-07-16T05:53:03;21.70;99.90
4757;DHT22;2392;52.578;13.426;2023-07-16T05:55:30;21.70;99.90
4757;DHT22;2392;52.578;13.426;2023-07-16T05:57:57;21.70;99.90
4757;DHT22;2392;52.578;13.426;2023-07-16T06:00:25;21.70;99.90
4757;DHT22;2392;52.578;13.426;2023-07-16T06:02:52;21.70;99.90
4757;DHT22;2392;52.578;13.426;2023-07-16T06:05:19;21.70;99.90
4757;DHT22;2392;52.578;13.426;2023-07-16T06:07:46;21.80;99.90
4757;DHT22;2392;52.578;13.426;2023-07-16T06:10:13;21.80;99.90
4757;DHT22;2392;52.578;13.426;2023-07-16T06:12:40;21.80;99.90
4757;DHT22;2392;52.578;13.426;2023-07-16T06:15:08;21.90;99.90
4757;DHT22;2392;52.578;13.426;2023-07-16T06:17:36;22.00;99.90
4757;DHT22;2392;52.578;13.426;2023-07-16T06:20:04;21.90;99.90
4757;DHT22;2392;52.578;13.426;2023-07-16T06:22:31;21.90;99.90
4757;DHT22;2392;52.578;13.426;2023-07-16T06:24:58;22.00;99.90
4757;DHT22;2392;52.578;13.426;2023-07-16T06:27:26;22.00;99.90
4757;DHT22;2392;52.578;13.426;2023-07-16T06:29:53;22.00;99.90
4757;DHT22;2392;52.578;13.426;2023-07-16T06:32:20;22.10;99.90
4757;DHT22;2392;52.578;13.426;2023-07-16T06:34:48;22.20;99.90
4757;DHT22;2392;52.578;13.426;2023-07-16T06:37:15;22.30;99.90
4757;DHT22;2392;52.578;13.426;2023-07-16T06:39:42;22.40;99.90
4757;DHT22;2392;52.578;13.426;2023-07-16T06:42:09;22.50;99.90
4757;DHT22;2392;52.578;13.426;2023-07-16T06:44:36;22.60;99.90
4757;DHT22;2392;52.578;13.426;2023-07-16T06:47:03;22.70;99.90
4757;DHT22;2392;52.578;13.426;2023-07-16T06:49:31;22.80;99.90
4757;DHT22;2392;52.578;13.426;2023-07-16T06:52:01;22.80;99.90
4757;DHT22;2392;52.578;13.426;2023-07-16T06:54:28;22.80;99.90
4757;DHT22;2392;52.578;13.426;2023-07-16T06:56:55;22.90;99.90
4757;DHT22;2392;52.578;13.426;2023-07-16T06:59:22;22.90;99.90
4757;DHT22;2392;52.578;13.426;2023-07-16T07:01:49;23.00;99.90
4757;DHT22;2392;52.578;13.426;2023-07-16T07:04:16;23.20;99.90
4757;DHT22;2392;52.578;13.426;2023-07-16T07:06:43;23.20;99.90
4757;DHT22;2392;52.578;13.426;2023-07-16T07:09:11;23.30;99.90
4757;DHT22;2392;52.578;13.426;2023-07-16T07:11:38;23.40;99.90
4757;DHT22;2392;52.578;13.426;2023-07-16T07:14:05;23.40;99.90
4757;DHT22;2392;52.578;13.426;2023-07-16T07:16:32;23.40;99.90
4757;DHT22;2392;52.578;13.426;2023-07-16T07:19:00;23.50;99.90
4757;DHT22;2392;52.578;13.426;2023-07-16T07:21:28;23.50;99.90
4757;DHT22;2392;52.578;13.426;2023-07-16T07:23:55;23.60;99.90
4757;DHT22;2392;52.578;13.426;2023-07-16T07:26:24;23.60;99.90
4757;DHT22;2392;52.578;13.426;2023-07-16T07:28:51;23.60;99.90
4757;DHT22;2392;52.578;13.426;2023-07-16T07:31:18;23.60;99.90
4757;DHT22;2392;52.578;13.426;2023-07-16T07:33:45;23.60;99.90
4757;DHT22;2392;52.578;13.426;2023-07-16T07:36:12;23.50;99.90
4757;DHT22;2392;52.578;13.426;2023-07-16T07:38:39;23.60;99.90
4757;DHT22;2392;52.578;13.426;2023-07-16T07:41:06;23.70;99.90
4757;DHT22;2392;52.578;13.426;2023-07-16T07:43:34;23.80;99.90
4757;DHT22;2392;52.578;13.426;2023-07-16T07:46:01;23.80;99.90
4757;DHT22;2392;52.578;13.426;2023-07-16T07:48:28;23.90;99.90
4757;DHT22;2392;52.578;13.426;2023-07-16T07:50:55;24.00;99.90
4757;DHT22;2392;52.578;13.426;2023-07-16T07:53:22;24.00;99.90
4757;DHT22;2392;52.578;13.426;2023-07-16T07:55:49;24.10;99.90
4757;DHT22;2392;52.578;13.426;2023-07-16T07:58:16;24.10;99.90
4757;DHT22;2392;52.578;13.426;2023-07-16T08:00:45;24.10;99.90
4757;DHT22;2392;52.578;13.426;2023-07-16T08:03:12;24.10;99.90
4757;DHT22;2392;52.578;13.426;2023-07-16T08:05:39;24.10;99.90
4757;DHT22;2392;52.578;13.426;2023-07-16T08:08:06;24.10;99.90
4757;DHT22;2392;52.578;13.426;2023-07-16T08:10:33;24.20;99.90
4757;DHT22;2392;52.578;13.426;2023-07-16T08:13:00;24.10;99.90
4757;DHT22;2392;52.578;13.426;2023-07-16T08:15:27;24.30;99.90
4757;DHT22;2392;52.578;13.426;2023-07-16T08:17:55;24.40;99.90
4757;DHT22;2392;52.578;13.426;2023-07-16T08:20:25;24.50;99.90
4757;DHT22;2392;52.578;13.426;2023-07-16T08:22:52;24.50;99.90
4757;DHT22;2392;52.578;13.426;2023-07-16T08:25:19;24.40;99.90
4757;DHT22;2392;52.578;13.426;2023-07-16T08:27:46;24.40;99.90
4757;DHT22;2392;52.578;13.426;2023-07-16T08:30:14;24.30;99.90
4757;DHT22;2392;52.578;13.426;2023-07-16T08:32:40;24.30;99.90
4757;DHT22;2392;52.578;13.426;2023-07-16T08:35:09;24.30;99.90
4757;DHT22;2392;52.578;13.426;2023-07-16T08:37:41;24.30;99.90
4757;DHT22;2392;52.578;13.426;2023-07-16T08:40:09;24.40;99.90
4757;DHT22;2392;52.578;13.426;2023-07-16T08:42:37;24.50;99.90
4757;DHT22;2392;52.578;13.426;2023-07-16T08:45:06;24.70;99.90
4757;DHT22;2392;52.578;13.426;2023-07-16T08:47:35;24.80;99.90
4757;DHT22;2392;52.578;13.426;2023-07-16T08:50:03;24.80;99.90
4757;DHT22;2392;52.578;13.426;2023-07-16T08:52:31;24.90;99.90
4757;DHT22;2392;52.578;13.426;2023-07-16T08:54:58;24.90;99.90
4757;DHT22;2392;52.578;13.426;2023-07-16T08:57:26;25.00;99.90
4757;DHT22;2392;52.578;13.426;2023-07-16T08:59:54;25.10;99.90
4757;DHT22;2392;52.578;13.426;2023-07-16T09:02:22;25.20;99.90
4757;DHT22;2392;52.578;13.426;2023-07-16T09:04:50;25.30;99.90
4757;DHT22;2392;52.578;13.426;2023-07-16T09:07:17;25.30;99.90
4757;DHT22;2392;52.578;13.426;2023-07-16T09:09:56;25.40;99.90
4757;DHT22;2392;52.578;13.426;2023-07-16T09:12:25;25.40;99.90
4757;DHT22;2392;52.578;13.426;2023-07-16T09:14:53;25.50;99.90
4757;DHT22;2392;52.578;13.426;2023-07-16T09:17:21;25.60;99.90
4757;DHT22;2392;52.578;13.426;2023-07-16T09:19:48;25.60;99.90
4757;DHT22;2392;52.578;13.426;2023-07-16T09:22:17;25.50;99.90
4757;DHT22;2392;52.578;13.426;2023-07-16T09:24:45;25.50;99.90
4757;DHT22;2392;52.578;13.426;2023-07-16T09:27:14;25.50;99.90
4757;DHT22;2392;52.578;13.426;2023-07-16T09:29:41;25.50;99.90
4757;DHT22;2392;52.578;13.426;2023-07-16T09:32:08;25.60;99.90
4757;DHT22;2392;52.578;13.426;2023-07-16T09:34:35;25.60;99.90
4757;DHT22;2392;52.578;13.426;2023-07-16T09:37:04;25.60;99.90
4757;DHT22;2392;52.578;13.426;2023-07-16T09:39:32;25.70;99.90
4757;DHT22;2392;52.578;13.426;2023-07-16T09:41:59;25.80;99.90
4757;DHT22;2392;52.578;13.426;2023-07-16T09:44:29;25.70;99.90
4757;DHT22;2392;52.578;13.426;2023-07-16T09:46:56;25.70;99.90
4757;DHT22;2392;52.578;13.426;2023-07-16T09:49:25;25.70;99.90
4757;DHT22;2392;52.578;13.426;2023-07-16T09:51:56;25.80;99.90
4757;DHT22;2392;52.578;13.426;2023-07-16T09:54:25;25.90;99.90
4757;DHT22;2392;52.578;13.426;2023-07-16T09:56:56;26.00;99.90
4757;DHT22;2392;52.578;13.426;2023-07-16T09:59:26;26.10;99.90
4757;DHT22;2392;52.578;13.426;2023-07-16T10:01:56;26.00;99.90
4757;DHT22;2392;52.578;13.426;2023-07-16T10:04:23;26.10;99.90
4757;DHT22;2392;52.578;13.426;2023-07-16T10:06:51;26.10;99.90
4757;DHT22;2392;52.578;13.426;2023-07-16T10:09:39;26.20;99.90
4757;DHT22;2392;52.578;13.426;2023-07-16T10:12:15;26.30;99.90
4757;DHT22;2392;52.578;13.426;2023-07-16T10:14:45;26.50;99.90
4757;DHT22;2392;52.578;13.426;2023-07-16T10:17:15;26.60;99.90
4757;DHT22;2392;52.578;13.426;2023-07-16T10:19:55;26.70;99.90
4757;DHT22;2392;52.578;13.426;2023-07-16T10:22:36;26.70;99.90
4757;DHT22;2392;52.578;13.426;2023-07-16T10:25:07;26.80;99.90
4757;DHT22;2392;52.578;13.426;2023-07-16T10:27:34;26.90;99.90
4757;DHT22;2392;52.578;13.426;2023-07-16T10:30:03;27.00;99.90
4757;DHT22;2392;52.578;13.426;2023-07-16T10:32:33;27.00;99.90
4757;DHT22;2392;52.578;13.426;2023-07-16T10:35:00;27.10;99.90
4757;DHT22;2392;52.578;13.426;2023-07-16T10:37:27;27.30;99.90
4757;DHT22;2392;52.578;13.426;2023-07-16T10:39:57;27.50;99.90
4757;DHT22;2392;52.578;13.426;2023-07-16T10:42:27;28.00;99.90
4757;DHT22;2392;52.578;13.426;2023-07-16T10:44:56;28.90;99.90
4757;DHT22;2392;52.578;13.426;2023-07-16T10:47:28;29.80;98.60
4757;DHT22;2392;52.578;13.426;2023-07-16T10:49:57;30.80;97.90
4757;DHT22;2392;52.578;13.426;2023-07-16T10:52:25;31.00;96.40
4757;DHT22;2392;52.578;13.426;2023-07-16T10:54:53;31.50;95.70
4757;DHT22;2392;52.578;13.426;2023-07-16T10:57:21;31.70;94.70
4757;DHT22;2392;52.578;13.426;2023-07-16T10:59:48;31.80;94.20
4757;DHT22;2392;52.578;13.426;2023-07-16T11:02:16;32.10;93.60
4757;DHT22;2392;52.578;13.426;2023-07-16T11:04:44;31.90;91.90
4757;DHT22;2392;52.578;13.426;2023-07-16T11:07:14;32.10;91.70
4757;DHT22;2392;52.578;13.426;2023-07-16T11:09:41;32.90;91.10
4757;DHT22;2392;52.578;13.426;2023-07-16T11:12:10;33.70;90.20
4757;DHT22;2392;52.578;13.426;2023-07-16T11:14:38;34.30;87.50
4757;DHT22;2392;52.578;13.426;2023-07-16T11:17:06;33.80;86.00
4757;DHT22;2392;52.578;13.426;2023-07-16T11:19:34;33.20;86.00
4757;DHT22;2392;52.578;13.426;2023-07-16T11:22:02;32.20;86.50
4757;DHT22;2392;52.578;13.426;2023-07-16T11:24:38;31.40;87.50
4757;DHT22;2392;52.578;13.426;2023-07-16T11:27:12;30.70;89.50
4757;DHT22;2392;52.578;13.426;2023-07-16T11:29:39;30.30;90.20
4757;DHT22;2392;52.578;13.426;2023-07-16T11:32:08;30.00;90.70
4757;DHT22;2392;52.578;13.426;2023-07-16T11:34:35;29.80;91.10
4757;DHT22;2392;52.578;13.426;2023-07-16T11:37:09;29.60;91.20
4757;DHT22;2392;52.578;13.426;2023-07-16T11:39:38;29.40;91.30
4757;DHT22;2392;52.578;13.426;2023-07-16T11:42:05;29.20;91.30
4757;DHT22;2392;52.578;13.426;2023-07-16T11:44:33;29.00;91.70
4757;DHT22;2392;52.578;13.426;2023-07-16T11:47:01;28.80;91.70
4757;DHT22;2392;52.578;13.426;2023-07-16T11:49:29;28.60;92.10
4757;DHT22;2392;52.578;13.426;2023-07-16T11:51:56;28.50;92.70
4757;DHT22;2392;52.578;13.426;2023-07-16T11:54:23;28.20;92.70
4757;DHT22;2392;52.578;13.426;2023-07-16T11:56:52;27.90;93.10
4757;DHT22;2392;52.578;13.426;2023-07-16T11:59:19;27.80;94.00
4757;DHT22;2392;52.578;13.426;2023-07-16T12:01:48;27.80;93.60
4757;DHT22;2392;52.578;13.426;2023-07-16T12:04:15;27.80;92.50
4757;DHT22;2392;52.578;13.426;2023-07-16T12:06:43;27.70;92.20
4757;DHT22;2392;52.578;13.426;2023-07-16T12:09:10;27.60;92.70
4757;DHT22;2392;52.578;13.426;2023-07-16T12:11:37;27.60;92.60
4757;DHT22;2392;52.578;13.426;2023-07-16T12:14:06;27.40;92.40
4757;DHT22;2392;52.578;13.426;2023-07-16T12:16:34;27.50;92.90
4757;DHT22;2392;52.578;13.426;2023-07-16T12:19:00;27.60;91.60
4757;DHT22;2392;52.578;13.426;2023-07-16T12:21:28;27.80;90.10
4757;DHT22;2392;52.578;13.426;2023-07-16T12:23:55;27.90;90.80
4757;DHT22;2392;52.578;13.426;2023-07-16T12:26:22;28.10;90.40
4757;DHT22;2392;52.578;13.426;2023-07-16T12:28:49;28.40;88.50
4757;DHT22;2392;52.578;13.426;2023-07-16T12:31:17;28.70;88.00
4757;DHT22;2392;52.578;13.426;2023-07-16T12:33:45;28.80;85.70
4757;DHT22;2392;52.578;13.426;2023-07-16T12:36:13;28.70;87.60
4757;DHT22;2392;52.578;13.426;2023-07-16T12:38:40;28.70;84.10
4757;DHT22;2392;52.578;13.426;2023-07-16T12:41:07;28.50;83.50
4757;DHT22;2392;52.578;13.426;2023-07-16T12:43:35;28.50;84.60
4757;DHT22;2392;52.578;13.426;2023-07-16T12:46:02;28.50;80.20
4757;DHT22;2392;52.578;13.426;2023-07-16T12:48:31;28.50;81.80
4757;DHT22;2392;52.578;13.426;2023-07-16T12:50:58;28.50;83.70
4757;DHT22;2392;52.578;13.426;2023-07-16T12:53:25;28.50;82.30
4757;DHT22;2392;52.578;13.426;2023-07-16T12:55:53;28.40;81.20
4757;DHT22;2392;52.578;13.426;2023-07-16T12:58:20;28.50;79.20
4757;DHT22;2392;52.578;13.426;2023-07-16T13:00:47;28.70;78.60
4757;DHT22;2392;52.578;13.426;2023-07-16T13:03:14;28.90;78.20
4757;DHT22;2392;52.578;13.426;2023-07-16T13:05:44;29.20;76.90
4757;DHT22;2392;52.578;13.426;2023-07-16T13:08:11;29.50;76.20
4757;DHT22;2392;52.578;13.426;2023-07-16T13:10:39;29.70;76.40
4757;DHT22;2392;52.578;13.426;2023-07-16T13:13:06;29.90;75.50
4757;DHT22;2392;52.578;13.426;2023-07-16T13:15:34;29.90;75.30
4757;DHT22;2392;52.578;13.426;2023-07-16T13:18:02;29.70;75.10
4757;DHT22;2392;52.578;13.426;2023-07-16T13:20:29;29.50;76.00
4757;DHT22;2392;52.578;13.426;2023-07-16T13:22:57;29.40;75.50
4757;DHT22;2392;52.578;13.426;2023-07-16T13:25:26;29.10;77.00
4757;DHT22;2392;52.578;13.426;2023-07-16T13:27:55;28.90;77.40
4757;DHT22;2392;52.578;13.426;2023-07-16T13:30:22;28.80;77.60
4757;DHT22;2392;52.578;13.426;2023-07-16T13:32:49;28.80;78.20
4757;DHT22;2392;52.578;13.426;2023-07-16T13:35:16;28.80;78.10
4757;DHT22;2392;52.578;13.426;2023-07-16T13:37:44;28.80;78.50
4757;DHT22;2392;52.578;13.426;2023-07-16T13:40:13;28.90;79.10
4757;DHT22;2392;52.578;13.426;2023-07-16T13:42:40;28.90;78.40
4757;DHT22;2392;52.578;13.426;2023-07-16T13:45:08;28.90;78.00
4757;DHT22;2392;52.578;13.426;2023-07-16T13:47:35;28.90;77.20
4757;DHT22;2392;52.578;13.426;2023-07-16T13:50:02;28.80;78.20
4757;DHT22;2392;52.578;13.426;2023-07-16T13:52:29;28.70;77.70
4757;DHT22;2392;52.578;13.426;2023-07-16T13:54:56;28.40;78.30
4757;DHT22;2392;52.578;13.426;2023-07-16T13:57:24;28.40;79.30
4757;DHT22;2392;52.578;13.426;2023-07-16T13:59:51;28.30;78.00
4757;DHT22;2392;52.578;13.426;2023-07-16T14:02:18;28.30;77.60
4757;DHT22;2392;52.578;13.426;2023-07-16T14:04:46;28.40;77.80
4757;DHT22;2392;52.578;13.426;2023-07-16T14:07:13;28.40;77.60
4757;DHT22;2392;52.578;13.426;2023-07-16T14:09:40;28.50;76.80
4757;DHT22;2392;52.578;13.426;2023-07-16T14:12:07;28.50;76.70
4757;DHT22;2392;52.578;13.426;2023-07-16T14:14:36;28.60;77.20
4757;DHT22;2392;52.578;13.426;2023-07-16T14:17:03;28.60;77.30
4757;DHT22;2392;52.578;13.426;2023-07-16T14:19:30;28.60;77.10
4757;DHT22;2392;52.578;13.426;2023-07-16T14:21:57;28.50;77.30
4757;DHT22;2392;52.578;13.426;2023-07-16T14:24:25;28.40;77.80
4757;DHT22;2392;52.578;13.426;2023-07-16T14:26:52;28.20;75.50
4757;DHT22;2392;52.578;13.426;2023-07-16T14:29:19;28.00;74.90
4757;DHT22;2392;52.578;13.426;2023-07-16T14:31:47;27.80;75.30
4757;DHT22;2392;52.578;13.426;2023-07-16T14:34:14;27.90;75.50
4757;DHT22;2392;52.578;13.426;2023-07-16T14:36:42;28.10;75.80
4757;DHT22;2392;52.578;13.426;2023-07-16T14:39:09;28.10;75.10
4757;DHT22;2392;52.578;13.426;2023-07-16T14:41:36;28.10;75.10
4757;DHT22;2392;52.578;13.426;2023-07-16T14:44:05;28.10;75.70
4757;DHT22;2392;52.578;13.426;2023-07-16T14:46:33;28.10;75.90
4757;DHT22;2392;52.578;13.426;2023-07-16T14:49:01;28.10;75.80
4757;DHT22;2392;52.578;13.426;2023-07-16T14:51:28;28.10;75.30
4757;DHT22;2392;52.578;13.426;2023-07-16T14:53:55;28.10;75.50
4757;DHT22;2392;52.578;13.426;2023-07-16T14:56:22;28.20;75.60
4757;DHT22;2392;52.578;13.426;2023-07-16T14:58:49;28.20;73.90
4757;DHT22;2392;52.578;13.426;2023-07-16T15:01:16;28.20;74.70
4757;DHT22;2392;52.578;13.426;2023-07-16T15:03:44;28.20;77.90
4757;DHT22;2392;52.578;13.426;2023-07-16T15:06:12;28.20;76.70
4757;DHT22;2392;52.578;13.426;2023-07-16T15:08:40;28.20;79.10
4757;DHT22;2392;52.578;13.426;2023-07-16T15:11:07;28.30;76.80
4757;DHT22;2392;52.578;13.426;2023-07-16T15:13:34;28.20;77.40
4757;DHT22;2392;52.578;13.426;2023-07-16T15:16:01;28.30;75.60
4757;DHT22;2392;52.578;13.426;2023-07-16T15:18:29;28.30;75.30
4757;DHT22;2392;52.578;13.426;2023-07-16T15:20:57;28.30;74.50
4757;DHT22;2392;52.578;13.426;2023-07-16T15:23:27;28.50;75.80
4757;DHT22;2392;52.578;13.426;2023-07-16T15:25:54;28.60;76.70
4757;DHT22;2392;52.578;13.426;2023-07-16T15:28:22;28.50;75.30
4757;DHT22;2392;52.578;13.426;2023-07-16T15:30:49;28.40;75.30
4757;DHT22;2392;52.578;13.426;2023-07-16T15:33:16;28.40;75.90
4757;DHT22;2392;52.578;13.426;2023-07-16T15:35:43;28.40;77.20
4757;DHT22;2392;52.578;13.426;2023-07-16T15:38:10;28.30;76.00
4757;DHT22;2392;52.578;13.426;2023-07-16T15:40:39;28.40;75.10
4757;DHT22;2392;52.578;13.426;2023-07-16T15:43:06;28.40;76.20
4757;DHT22;2392;52.578;13.426;2023-07-16T15:45:33;28.30;76.80
4757;DHT22;2392;52.578;13.426;2023-07-16T15:48:00;28.20;74.90
4757;DHT22;2392;52.578;13.426;2023-07-16T15:50:28;28.20;77.00
4757;DHT22;2392;52.578;13.426;2023-07-16T15:52:55;28.20;76.50